createdAt,value
2019-05-17T00:04:09.849Z,91.40
2019-05-17T00:09:13.446Z,92.10
2019-05-17T00:14:17.118Z,91.90
2019-05-17T00:19:20.770Z,92.00
2019-05-17T00:24:26.465Z,91.90
2019-05-17T00:29:29.598Z,91.80
2019-05-17T00:34:33.182Z,91.50
2019-05-17T00:39:36.849Z,91.80
2019-05-17T00:44:40.533Z,92.00
2019-05-17T00:49:46.444Z,92.70
2019-05-17T00:54:50.143Z,93.30
2019-05-17T00:59:54.070Z,93.20
2019-05-17T01:04:57.663Z,93.40
2019-05-17T01:10:01.243Z,93.00
2019-05-17T01:15:09.322Z,93.30
2019-05-17T01:20:13.346Z,93.50
2019-05-17T01:25:17.533Z,93.20
2019-05-17T01:30:21.258Z,93.40
2019-05-17T01:35:26.634Z,93.60
2019-05-17T01:40:30.112Z,93.90
2019-05-17T01:45:33.701Z,93.90
2019-05-17T01:50:37.645Z,93.70
2019-05-17T01:55:41.357Z,93.40
2019-05-17T02:00:46.533Z,93.50
2019-05-17T02:05:50.726Z,93.10
2019-05-17T02:10:54.446Z,93.10
2019-05-17T02:15:58.109Z,94.00
2019-05-17T02:21:02.059Z,94.80
2019-05-17T02:26:06.795Z,94.50
2019-05-17T02:31:13.389Z,93.50
2019-05-17T02:36:16.339Z,93.90
2019-05-17T02:41:22.735Z,93.90
2019-05-17T02:46:25.299Z,94.30
2019-05-17T02:51:32.121Z,94.70
2019-05-17T02:56:34.261Z,94.60
2019-05-17T03:01:37.863Z,94.60
2019-05-17T03:06:43.921Z,94.40
2019-05-17T03:11:46.907Z,95.50
2019-05-17T03:16:53.427Z,95.50
2019-05-17T03:21:56.267Z,95.10
2019-05-17T03:27:02.838Z,95.40
2019-05-17T03:32:08.699Z,95.70
2019-05-17T03:37:16.073Z,95.90
2019-05-17T03:42:16.793Z,95.30
2019-05-17T03:47:22.666Z,95.20
2019-05-17T03:52:26.362Z,94.90
2019-05-17T03:57:32.355Z,95.30
2019-05-17T04:02:37.129Z,96.00
2019-05-17T04:07:43.427Z,96.00
2019-05-17T04:12:46.410Z,96.00
2019-05-17T04:17:52.843Z,95.80
2019-05-17T04:22:59.657Z,95.80
2019-05-17T04:28:03.580Z,95.60
2019-05-17T04:33:07.228Z,95.50
2019-05-17T04:38:12.803Z,95.70
2019-05-17T04:43:16.468Z,95.70
2019-05-17T04:48:23.586Z,95.60
2019-05-17T04:53:27.153Z,95.50
2019-05-17T04:58:33.541Z,95.10
2019-05-17T05:03:36.542Z,94.80
2019-05-17T05:08:42.544Z,96.00
2019-05-17T05:13:45.762Z,95.60
2019-05-17T05:18:51.916Z,95.20
2019-05-17T05:23:54.590Z,94.70
2019-05-17T05:28:58.172Z,94.60
2019-05-17T05:34:02.116Z,94.20
2019-05-17T05:39:07.341Z,93.60
2019-05-17T05:44:12.261Z,93.20
2019-05-17T05:49:16.442Z,92.80
2019-05-17T05:54:22.413Z,92.30
2019-05-17T05:59:25.685Z,92.00
2019-05-17T06:04:31.656Z,90.90
2019-05-17T06:09:34.641Z,90.90
2019-05-17T06:14:38.236Z,88.80
2019-05-17T06:19:42.342Z,87.80
2019-05-17T06:24:46.037Z,87.60
2019-05-17T06:29:51.552Z,85.50
2019-05-17T06:34:55.595Z,85.50
2019-05-17T06:40:02.104Z,84.80
2019-05-17T06:45:06.777Z,82.80
2019-05-17T06:50:10.726Z,84.00
2019-05-17T06:55:14.741Z,83.10
2019-05-17T07:00:23.622Z,82.60
2019-05-17T07:05:35.318Z,82.70
2019-05-17T07:10:39.903Z,82.20
2019-05-17T07:15:47.849Z,81.90
2019-05-17T07:20:50.229Z,83.00
2019-05-17T07:25:53.944Z,81.90
2019-05-17T07:30:59.665Z,82.80
2019-05-17T07:36:02.916Z,80.50
2019-05-17T07:41:06.590Z,79.70
2019-05-17T07:46:10.537Z,81.30
2019-05-17T07:51:14.499Z,82.30
2019-05-17T07:56:20.007Z,79.80
2019-05-17T08:01:23.332Z,79.90
2019-05-17T08:06:26.931Z,77.40
2019-05-17T08:11:30.895Z,77.60
2019-05-17T08:16:34.500Z,76.70
2019-05-17T08:21:39.841Z,76.40
2019-05-17T08:26:43.388Z,74.70
2019-05-17T08:31:46.981Z,72.60
2019-05-17T08:36:50.598Z,73.70
2019-05-17T08:41:54.206Z,72.10
2019-05-17T08:46:59.513Z,72.60
2019-05-17T08:52:03.156Z,74.40
2019-05-17T08:57:06.748Z,71.00
2019-05-17T09:02:10.923Z,70.50
2019-05-17T09:07:14.525Z,69.60
2019-05-17T09:12:20.487Z,67.80
2019-05-17T09:17:23.452Z,68.50
2019-05-17T09:22:30.495Z,66.70
2019-05-17T09:27:32.548Z,67.80
2019-05-17T09:32:36.133Z,67.00
2019-05-17T09:37:41.290Z,65.00
2019-05-17T09:42:45.737Z,63.70
2019-05-17T09:47:50.587Z,62.30
2019-05-17T09:52:54.693Z,64.30
2019-05-17T09:58:00.240Z,62.60
2019-05-17T10:03:03.520Z,60.80
2019-05-17T10:08:07.254Z,61.90
2019-05-17T10:13:10.916Z,61.70
2019-05-17T10:18:14.577Z,61.50
2019-05-17T10:23:19.657Z,61.40
2019-05-17T10:28:23.483Z,60.50
2019-05-17T10:33:29.333Z,61.50
2019-05-17T10:38:32.714Z,58.60
2019-05-17T10:43:36.309Z,58.40
2019-05-17T10:48:41.119Z,55.30
2019-05-17T10:53:45.161Z,56.30
2019-05-17T10:58:53.113Z,58.90
2019-05-17T11:03:59.626Z,57.00
2019-05-17T11:09:06.052Z,59.30
2019-05-17T11:14:10.198Z,56.40
2019-05-17T11:19:16.050Z,57.90
2019-05-17T11:24:20.941Z,59.40
2019-05-17T11:29:26.630Z,58.90
2019-05-17T11:34:30.819Z,59.00
2019-05-17T11:39:37.833Z,58.50
2019-05-17T11:44:41.639Z,57.50
2019-05-17T11:49:45.261Z,57.90
2019-05-17T11:54:49.002Z,57.90
2019-05-17T11:59:52.674Z,57.50
2019-05-17T12:04:56.413Z,59.20
2019-05-17T12:10:00.065Z,56.40
2019-05-17T12:15:05.712Z,56.90
2019-05-17T12:20:10.112Z,53.60
2019-05-17T12:25:14.420Z,51.50
2019-05-17T12:30:18.561Z,51.80
2019-05-17T12:35:22.537Z,50.30
2019-05-17T12:40:26.599Z,51.30
2019-05-17T12:45:30.708Z,49.50
2019-05-17T12:50:34.395Z,50.50
2019-05-17T12:55:38.014Z,48.90
2019-05-17T13:00:41.975Z,50.60
2019-05-17T13:05:45.568Z,50.00
2019-05-17T13:10:49.563Z,48.90
2019-05-17T13:15:53.604Z,48.50
2019-05-17T13:20:57.192Z,47.10
2019-05-17T13:26:00.928Z,47.00
2019-05-17T13:31:04.655Z,45.90
2019-05-17T13:36:08.363Z,45.40
2019-05-17T13:41:12.426Z,44.50
2019-05-17T13:46:16.456Z,45.10
2019-05-17T13:51:20.220Z,43.10
2019-05-17T13:56:23.817Z,43.50
2019-05-17T14:01:27.773Z,41.80
2019-05-17T14:06:31.412Z,40.80
2019-05-17T14:11:36.973Z,41.80
2019-05-17T14:16:40.497Z,44.60
2019-05-17T14:21:44.097Z,45.10
2019-05-17T14:26:47.687Z,41.80
2019-05-17T14:31:51.700Z,41.70
2019-05-17T14:36:55.353Z,42.60
2019-05-17T14:41:58.981Z,40.10
2019-05-17T14:47:02.584Z,41.70
2019-05-17T14:52:06.211Z,42.50
2019-05-17T14:57:09.856Z,43.50
2019-05-17T15:02:13.461Z,45.30
2019-05-17T15:07:17.115Z,44.70
2019-05-17T15:12:28.405Z,44.30
2019-05-17T15:17:26.034Z,46.70
2019-05-17T15:22:29.761Z,47.20
2019-05-17T15:27:33.365Z,48.80
2019-05-17T15:32:37.091Z,48.60
2019-05-17T15:37:40.680Z,47.90
2019-05-17T15:42:44.917Z,48.20
2019-05-17T15:47:48.689Z,48.30
2019-05-17T15:52:52.567Z,47.70
2019-05-17T15:57:56.229Z,48.20
2019-05-17T16:02:59.818Z,48.70
2019-05-17T16:08:03.437Z,49.30
2019-05-17T16:13:07.113Z,49.70
2019-05-17T16:18:10.702Z,50.50
2019-05-17T16:23:14.713Z,50.70
2019-05-17T16:28:18.700Z,50.00
2019-05-17T16:33:22.304Z,48.40
2019-05-17T16:38:26.253Z,48.80
2019-05-17T16:43:30.370Z,49.40
2019-05-17T16:48:34.022Z,50.10
2019-05-17T16:53:38.129Z,50.30
2019-05-17T16:58:42.155Z,51.40
2019-05-17T17:03:45.766Z,51.20
2019-05-17T17:08:49.359Z,53.00
2019-05-17T17:13:52.938Z,57.90
2019-05-17T17:18:56.607Z,60.80
2019-05-17T17:24:00.638Z,62.80
2019-05-17T17:29:04.698Z,64.00
2019-05-17T17:34:08.403Z,65.20
2019-05-17T17:39:12.368Z,64.40
2019-05-17T17:44:15.961Z,64.70
2019-05-17T17:49:19.550Z,65.60
2019-05-17T17:54:23.157Z,66.60
2019-05-17T17:59:26.834Z,65.80
2019-05-17T18:04:30.699Z,67.50
2019-05-17T18:09:34.398Z,68.00
2019-05-17T18:14:38.081Z,68.70
2019-05-17T18:19:41.801Z,69.30
2019-05-17T18:24:45.433Z,69.50
2019-05-17T18:29:49.162Z,70.50
2019-05-17T18:34:52.760Z,71.20
2019-05-17T18:39:56.762Z,71.80
2019-05-17T18:45:00.689Z,72.70
2019-05-17T18:50:05.317Z,73.10
2019-05-17T18:55:09.445Z,73.60
2019-05-17T19:00:13.283Z,74.00
2019-05-17T19:05:17.524Z,74.10
2019-05-17T19:10:22.672Z,74.10
2019-05-17T19:15:26.353Z,74.80
2019-05-17T19:20:30.109Z,75.10
2019-05-17T19:25:34.181Z,74.80
2019-05-17T19:30:38.105Z,74.40
2019-05-17T19:35:41.696Z,74.40
2019-05-17T19:40:45.426Z,74.70
2019-05-17T19:45:48.945Z,74.20
2019-05-17T19:50:52.809Z,74.10
2019-05-17T19:55:56.730Z,74.30
2019-05-17T20:01:00.385Z,74.30
2019-05-17T20:06:04.094Z,74.00
2019-05-17T20:11:08.212Z,73.70
2019-05-17T20:16:13.054Z,73.80
2019-05-17T20:21:16.642Z,73.20
2019-05-17T20:26:20.310Z,74.10
2019-05-17T20:31:23.969Z,73.80
2019-05-17T20:36:27.583Z,73.30
2019-05-17T20:41:31.198Z,72.60
2019-05-17T20:46:34.778Z,74.90
2019-05-17T20:51:38.419Z,75.60
2019-05-17T20:56:42.080Z,76.30
2019-05-17T21:01:45.677Z,77.00
2019-05-17T21:06:49.271Z,78.80
2019-05-17T21:11:53.200Z,79.20
2019-05-17T21:16:57.141Z,80.20
2019-05-17T21:22:01.557Z,80.30
2019-05-17T21:27:05.234Z,83.90
2019-05-17T21:32:08.828Z,86.60
2019-05-17T21:37:12.504Z,89.10
2019-05-17T21:42:16.109Z,88.60
2019-05-17T21:47:19.701Z,90.20
2019-05-17T21:52:23.923Z,91.00
2019-05-17T21:57:27.584Z,91.20
2019-05-17T22:02:31.418Z,90.20
2019-05-17T22:07:35.145Z,89.10
2019-05-17T22:12:38.743Z,90.70
2019-05-17T22:17:45.441Z,90.90
2019-05-17T22:22:49.037Z,90.70
2019-05-17T22:27:52.633Z,89.40
2019-05-17T22:32:56.220Z,90.70
2019-05-17T22:37:59.812Z,91.30
2019-05-17T22:43:03.414Z,91.50
2019-05-17T22:48:07.079Z,90.60
2019-05-17T22:53:10.723Z,90.10
2019-05-17T22:58:14.309Z,89.60
2019-05-17T23:03:18.318Z,89.80
2019-05-17T23:08:22.255Z,89.70
2019-05-17T23:13:26.294Z,89.70
2019-05-17T23:18:34.338Z,90.00
2019-05-17T23:23:38.356Z,90.20
2019-05-17T23:28:42.363Z,90.60
2019-05-17T23:33:45.945Z,90.80
2019-05-17T23:38:49.680Z,91.10
2019-05-17T23:43:53.755Z,90.90
2019-05-17T23:48:57.883Z,91.20
2019-05-17T23:54:01.488Z,90.70
2019-05-17T23:59:05.653Z,91.00
